events-overview

Cane Creek Sprint

 

Overall Men

Cane Creek Park - 5213 Harkey Road - Waxhaw, NC 28173 9/20/2008 09:00AM

** Results are for the private use of participants and are the Intellectual Property of Set Up Events. Unauthorized use of these results is prohibited.

Place Bib Cod Ag NAME CITY/STATE Rank SWIM T1 Rank BIKE T2 Rank RUN PENALTY TIME DQ
1106 42DONNY FORSYTHCHARLOTTE NC200:11:4100:01:24100:35:2500:00:28200:17:35 01:06:31 
2367 26SCOTT WOODBURYCHARLOTTE NC400:12:1400:01:45200:37:5400:00:35300:18:25 01:10:50 
3233 39JEFF MURRAYCHARLOTTE NC         01:10:51 
4173 31JOSHUA KOLLMANNCHARLOTTE NC1900:13:3300:01:48300:38:0200:00:39600:18:46 01:12:47 
5180 17LAWSON KUEHNERTMORGANTON NC1300:13:0700:01:11900:39:5000:00:31500:18:43 01:13:21 
686 28DAVID DIRITOCARRBORO NC1200:13:0000:01:12500:39:2000:00:391000:19:15 01:13:25 
7359 40SCOT WHYTEFORT MILL SC100:11:1800:01:291900:41:0600:00:291600:20:15 01:14:36 
8167 43JIM KEFFERCHARLOTTE NC900:12:4600:01:531000:40:0200:00:371200:19:43 01:14:59 
9230 56DALE MOSHERANDERSON SC800:12:4500:01:47400:39:0000:00:372600:20:52 01:14:59 
10264 34TIM PRINCEMONROE NC700:12:4500:01:131600:40:2500:00:322400:20:47 01:15:41 
11316 42DAN SULLIVANCHARLOTTE NC3800:14:3600:01:47600:39:2700:00:512100:20:35 01:17:14 
12237 42CHRIS NEUMANWAXHAW NC2200:13:5000:01:591800:40:5500:00:531700:20:16 01:17:51 
13184 26CHRIS LAMPERSKICHARLOTTE NC6700:15:4800:01:323200:43:2000:00:42100:16:56 01:18:16 
14228MC43BRENT MORRISCHARLOTTE NC1600:13:3000:01:321300:40:1300:00:507000:22:52 01:18:54 
15191 37STEVEN LEWISWILMINGTON NC2500:14:0200:02:431200:40:1000:00:513400:21:18 01:19:03 
16139C39JONATHAN HEIGELCHARLOTTE NC4100:14:4100:01:30800:39:3700:01:026300:22:32 01:19:19 
17200 38ERIC MAGNUSONMOORESVILLE NC1000:12:5400:01:402000:41:1500:00:407800:23:07 01:19:34 
18313 40LOCKE STUART IIIWAXHAW NC7700:16:0900:01:451500:40:2300:00:382500:20:49 01:19:42 
19255 37TIM PETTUSCHARLOTTE NC9200:16:3700:01:35700:39:3300:00:503200:21:15 01:19:47 
20390 37WILLIAM CONNOLLYWAXHAW NC2800:14:0900:01:513000:42:5800:00:481400:20:06 01:19:50 
2146 51DANIEL CAMPOCHARLOTTE NC5300:14:5700:02:101700:40:3400:00:444900:21:57 01:20:19 
22279 42TOM ROGERSCHARLOTTE NC4600:14:4900:02:062100:41:3100:00:443300:21:16 01:20:24 
23380 46TIM GRINERCHARLOTTE NC2100:13:4500:02:012300:41:5500:00:375200:22:08 01:20:24 
24384 30WILL HAYESCHARLOTTE NC3900:14:3700:01:453500:43:3000:00:491800:20:18 01:20:56 
25249 53RICK PARSONSCHARLOTTE NC6200:15:2600:02:061400:40:1900:00:348000:23:09 01:21:32 
2662 29JESSE COOKSONMATTHEWS NC4700:14:4900:02:584000:43:4700:00:49900:19:15 01:21:36 
27240 17CLARK OBANNONCHARLOTTE NC4800:14:5100:01:514500:44:1200:00:312000:20:32 01:21:55 
28286 28RYAN SAUERWINSTON-SALEM NC6400:15:3600:01:533400:43:2500:01:401100:19:29 01:22:00 
29226 35MIKE MONTERUSSOCHARLOTTE NC9400:16:3800:03:082600:42:1100:01:48700:18:53 01:22:36 
3075 45CHARLES DALTONCHARLOTTE NC7200:15:5700:02:412900:42:2800:00:392700:20:59 01:22:43 
PlaceBibCodAgNAMECITY/STATERankSWIMT1RankBIKET2RankRUNPENALTYTIMEDQ
31113 36DIETRICH GLASCHARLOTTE NC4200:14:4200:02:224900:44:3000:00:583700:21:25 01:23:56 
32308 15CONNOR STEMPLEHICKORY NC3100:14:1800:02:025600:45:1300:01:044000:21:30 01:24:06 
33328 53TOM TORKILDSENMATTHEWS NC5900:15:1200:02:221100:40:0500:00:5314100:25:39 01:24:08 
34343 19STEPHEN VOGELDAVIDSON NC15100:18:4300:01:482200:41:4400:00:492900:21:08 01:24:10 
35300C38DANIEL SMYRSKICARY NC6100:15:2000:02:133900:43:4300:00:595100:22:05 01:24:18 
36293 18CHRISTOPHER SINGERNEW LONDON NC4400:14:4400:01:517400:46:3700:01:281300:19:45 01:24:23 
37205C37JOHN MARTELLECONCORD NC600:12:2100:02:247000:46:1800:00:516600:22:46 01:24:38 
38394 27JEREMY O'NEALWINSTON SALEM NC11500:17:1100:02:053100:43:0100:00:394600:21:52 01:24:47 
3963 51JAMES COONEYCHARLOTTE NC6300:15:3400:02:253600:43:3300:00:387500:23:02 01:25:10 
4097 34ANDY FETTCHARLOTTE NC5000:14:5100:02:184600:44:2400:00:447400:23:02 01:25:16 
4156 25MATT CHISHOLMCHARLOTTE NC12000:17:1700:02:222800:42:1800:01:185400:22:12 01:25:25 
4276 50CHRISTOPHER DALYCHARLOTTE NC5600:15:0900:02:374200:43:5600:00:566800:22:49 01:25:25 
4364 41BAILEY CORBETTWAXHAW NC5200:14:5500:01:596300:45:4500:01:064500:21:52 01:25:35 
44396 38MARCUS BARTONWAXHAW NC         01:25:42 
45212 44PATRICK MCFEELEYCHARLOTTE NC16300:19:1400:02:192700:42:1400:00:522800:21:07 01:25:43 
46294 41JAMES SLISARSKIMATTHEWS NC1700:13:3000:02:419500:47:3200:01:133500:21:22 01:26:16 
47393 54TERRENCE SHIELSCHARLOTTE NC5800:15:1100:02:202500:42:0200:00:5615000:25:56 01:26:23 
48363 34BRIAN WILSONCHARLOTTE NC11400:17:1100:02:096400:45:5700:01:091500:20:07 01:26:31 
4923 35DAN BESSETTEMIDLAND NC4900:14:5100:01:444100:43:5000:00:4113600:25:27 01:26:31 
50176MC44TODD KOPCZYNSKIWAXHAW NC7100:15:5600:02:585100:44:4600:00:515600:22:16 01:26:44 
51385 36BRIAN CONECONCORD NC4000:14:3900:02:049200:47:2500:01:104300:21:38 01:26:54 
52215 12MICHAEL MEBELADVANCE NC300:11:5600:02:3214200:50:0100:00:574100:21:34 01:26:58 
5345 40SCOTT CAMPBELLCHARLOTTE NC7300:15:5900:02:054400:44:0900:00:3210900:24:24 01:27:09 
54188 31DAN LEBLANCCHARLOTTE NC19100:20:2700:02:135200:44:4800:00:48800:19:15 01:27:29 
5548 39DAVID CARRCHARLOTTE NC7500:16:0600:02:415300:44:5100:01:096500:22:45 01:27:30 
56262 44JEFF PLEMMONSGASTONIA NC6000:15:1500:02:516000:45:2100:01:237300:23:01 01:27:50 
5728 37JASON BOYSCHARLOTTE NC15700:18:5900:02:034800:44:2900:00:424700:21:53 01:28:05 
5852 20NICK CHANINDAVIDSON NC12100:17:1800:02:336100:45:2600:00:555000:21:58 01:28:08 
59150 53DWIGHT HOWELLCHINA GROVE NC13300:17:5000:02:233800:43:4200:00:548500:23:30 01:28:17 
60209 26RANDY MAULDINNEW LONDON NC8800:16:3200:02:209000:47:2300:00:334200:21:36 01:28:23 
6116 41ROBERT BALESHUNTERSVILLE NC7800:16:0900:02:485500:45:0100:00:409400:23:48 01:28:23 
PlaceBibCodAgNAMECITY/STATERankSWIMT1RankBIKET2RankRUNPENALTYTIMEDQ
6231 45JOHN BRIENZACHARLOTTE NC1100:12:5800:01:4615700:50:4800:00:505300:22:10 01:28:29 
63296MC45CHRIS B. SMITHCHAPEL HILL NC3200:14:2100:02:283300:43:2200:01:0019700:28:11 01:29:20 
6491 36WAYNE EMBREYCHARLOTTE NC7600:16:0800:01:397800:46:5000:00:4310100:24:02 01:29:20 
65340 30MICHAEL VILLACARLOSFAYETTEVILLE NC3300:14:2200:02:0714400:50:0400:00:226200:22:29 01:29:22 
6669 15AUSTIN COWARDCASHIERS NC11800:17:1500:01:399400:47:2800:00:415800:22:22 01:29:22 
67119 41MARK GOODMANCHARLOTTE NC13200:17:4100:03:072400:41:5800:02:2611100:24:26 01:29:36 
68220 35DAVID MIHALICKCHARLOTTE NC8300:16:1900:03:256700:46:1100:01:295500:22:15 01:29:36 
69335 48RICK VAN GURPMARVIN NC1500:13:1800:02:2410100:47:5100:00:5912600:25:07 01:29:37 
7079 13JARED DEMBSKINEBO NC3500:14:2800:01:4717400:51:3200:00:283800:21:29 01:29:42 
71312 29JONATHAN STORYCHARLOTTE NC10800:17:0000:02:2911500:48:4600:01:071900:20:32 01:29:52 
7284 27ERIC DEWEYCHARLOTTE NC3400:14:2700:02:5110300:48:0000:00:569100:23:44 01:29:56 
7312 39RUSTY ARMSTRONGDENVER NC12200:17:1900:02:0211000:48:3200:01:043600:21:24 01:30:19 
7496 24PATRICK FARRARCONYERS GA12500:17:2200:02:064700:44:2900:01:3012300:25:00 01:30:25 
75245 35MACIEJ OMBACHCHARLOTTE NC7400:16:0300:03:117100:46:2100:01:199300:23:46 01:30:38 
7671 47CHRISTOPHER CULPCHARLOTTE NC8500:16:2600:02:207700:46:4800:01:358700:23:38 01:30:44 
77337 33GIL VANDER VOORTCOLUMBIA SC2300:13:5600:03:005400:44:5600:01:3618700:27:25 01:30:52 
78298 38SCOTT SMITHFORT MILL SC8400:16:2300:02:1510000:47:4800:01:108300:23:19 01:30:54 
79256 38CHRIS PHILLIPSTAYLORSVILLE NC8000:16:1300:03:206500:46:0100:01:0110800:24:22 01:30:56 
80301 17PATRICK SNYDERCHARLOTTE NC500:12:1700:03:0213900:49:5300:00:3913000:25:13 01:31:02 
8194 60TERRY FARMERCHARLOTTE NC9000:16:3300:02:526800:46:1100:01:2310600:24:12 01:31:10 
82204 40GLENN MARRYATWAXHAW NC14400:18:2400:03:125700:45:1500:01:177700:23:05 01:31:11 
8367 37GARY CORRADOCHARLOTTE NC4500:14:4900:02:317200:46:2700:01:1016200:26:23 01:31:17 
8432 13MICHAEL BRIENZACHARLOTTE NC2400:13:5800:02:2118100:52:1600:00:316000:22:24 01:31:29 
85310 28MITCHELL STEWARTCHARLOTTE NC13800:18:1100:02:027500:46:3900:00:3910500:24:09 01:31:38 
86231 38SEAN MULLENMOUNT HOLLY NC12800:17:2900:04:036900:46:1700:01:097100:22:53 01:31:49 
87345MC43ADAM VON OLHAUSENDENVER NC10500:16:5500:04:113700:43:3900:01:1214900:25:56 01:31:51 
88194 65PETER LILLEYCHARLOTTE NC11700:17:1400:02:265800:45:1800:01:0715200:25:56 01:32:00 
89267 48ANTHONY READMOORESVILLE NC5400:15:0600:02:4910500:48:1900:00:4212700:25:08 01:32:02 
90179 35JONATHAN KRISKOCHARLOTTE NC6800:15:5300:02:579600:47:3500:01:1411600:24:34 01:32:11 
91100 44DAVID FINBYMATTHEWS NC11100:17:0400:01:598000:46:5200:00:5113700:25:28 01:32:12 
92223 43MARK MISKIECHARLOTTE NC12700:17:2600:03:088400:46:5900:01:079000:23:43 01:32:23 
PlaceBibCodAgNAMECITY/STATERankSWIMT1RankBIKET2RankRUNPENALTYTIMEDQ
93146 37JAMES HOLTCONCORD NC2700:14:0600:02:4916400:51:0800:00:519200:23:44 01:32:36 
94252 33ROBERT PERRYMATTHEWS NC18000:20:0300:03:028700:47:1500:00:563900:21:30 01:32:44 
9553 49TIM CHAPINCHARLOTTE NC7900:16:1300:02:5612300:49:0800:00:558600:23:34 01:32:45 
96199 43ANDREW MACKENZIEWAXHAW NC7000:15:5600:03:4812800:49:2400:01:006700:22:48 01:32:54 
9736 37BRIAN BROWNGASTONIA NC8100:16:1400:03:0016500:51:0900:01:313000:21:13 01:33:05 
98169 37JAMES KIMCHARLOTTE NC6500:15:3600:02:3811600:48:4800:01:0512900:25:13 01:33:18 
99383 49SCOTT GREENAPPLECHARLOTTE NC11200:17:0600:03:2210200:47:5300:01:089600:23:55 01:33:21 
100266 28GARNETT RAMSBOTTOM IIICHARLOTTE NC5100:14:5300:02:2911800:48:5000:00:4816000:26:23 01:33:22 
101251 47ROSS PAYNECHARLOTTE NC3700:14:3500:02:2111200:48:3400:01:1417000:26:42 01:33:23 
102362 37TODD WILLIAMSDENVER NC10100:16:4900:02:409900:47:4200:01:1412400:25:01 01:33:24 
103234C31AARON MYALLCAMERON NC13600:18:0800:01:498800:47:1500:00:4513900:25:35 01:33:29 
104195 32ERIK LINDHJEMCONCORD NC18500:20:1100:02:104300:43:5800:00:5116300:26:23 01:33:32 
105238MC45ARTIE NEWCOMBEGASTONIA NC2600:14:0500:02:187900:46:5100:01:1021200:29:15 01:33:37 
106154 47JOSEPH HURTEAUMATTHEWS NC12400:17:2100:01:579800:47:4000:01:0814600:25:46 01:33:50 
10761 26JASON COOKECHARLOTTE NC1800:13:3000:03:1812000:48:5400:01:5915800:26:17 01:33:56 
108338 27JASON VARNEYJOHNSON CITY TN18300:20:1000:02:5811100:48:3300:01:053100:21:15 01:33:58 
10921 30GUY BERGERCHARLOTTE NC14500:18:2900:03:2315800:50:5100:00:422200:20:36 01:33:59 
11059 34JASON COATSCHARLOTTE NC9500:16:3900:02:3310700:48:2500:00:4614500:25:45 01:34:06 
111246 49LESTER OSBORNCHARLOTTE NC1400:13:1000:03:0515200:50:3000:00:3617700:27:01 01:34:21 
112273 40RAY REYNOLDSCHARLOTTE NC17500:19:4400:02:505000:44:4100:01:0515900:26:22 01:34:40 
113108 32TODD FOUSTFORT MILL SC2000:13:3900:02:5317100:51:2600:00:3416500:26:27 01:34:57 
114164 34MEHMET KARAKUSCHARLOTTE NC19000:20:1900:02:587300:46:2900:01:0010700:24:17 01:35:02 
115261 24CHRISTOPHER PIPASHUNTERSVILLE NC9800:16:4000:02:0113100:49:2800:01:0614700:25:51 01:35:04 
116339 44ROBERT VENTURIADVANCE NC20100:21:1600:03:066600:46:0400:01:377600:23:04 01:35:06 
117306C35REGINALD STAPLESCHARLOTTE NC14900:18:3800:02:3711700:48:4800:00:5111300:24:32 01:35:24 
118303 38CRAIG SPEISERMATTHEWS NC11600:17:1300:04:5710400:48:1500:01:587900:23:07 01:35:29 
119141 29AARON HITECHARLOTTE NC3000:14:1700:03:2417500:51:4000:01:1312200:24:56 01:35:29 
120315 36ALEX SULLIVANFORT MILL SC2900:14:1200:02:0522000:57:5600:00:432300:20:44 01:35:38 
12193 39RAY EVANSCHARLOTTE NC13900:18:1200:03:2514700:50:1100:01:256100:22:27 01:35:39 
122137 39JASON HAWGOODPINE KNOLL SHORES NC8200:16:1500:02:4410900:48:3100:01:1417400:26:58 01:35:40 
123133 38CHRIS HARSHMANCHARLOTTE NC8900:16:3300:02:0312700:49:2000:01:0217200:26:46 01:35:42 
PlaceBibCodAgNAMECITY/STATERankSWIMT1RankBIKET2RankRUNPENALTYTIMEDQ
124118 43ROBERT GOODLINGCHARLOTTE NC14100:18:1400:02:428900:47:1700:01:1915700:26:17 01:35:46 
125213 66ALAN MCGILLIVRAYCHARLOTTE NC17000:19:3100:02:4710800:48:2900:01:149500:23:51 01:35:51 
126115C36BRIAN GOINSCHARLOTTE NC5500:15:0700:02:3518300:52:2200:00:3713100:25:15 01:35:53 
127110 35WALT GALLCHAPEL HILL NC12300:17:2000:02:3817200:51:2700:01:158400:23:21 01:35:59 
128388 38ROBERT PHILLIPSCHARLOTTE NC9100:16:3400:03:3912900:49:2700:01:2712000:24:54 01:36:00 
129314 29KEVIN STUMPCHARLOTTE NC13500:18:0000:03:478300:46:5800:01:0815500:26:11 01:36:02 
130147 32JASON HOOVENCHARLOTTE NC15000:18:4000:01:5816100:51:0000:00:548900:23:41 01:36:11 
131317 27MATTHEW SUSONGCHARLOTTE NC4300:14:4400:04:1819000:52:4600:00:3310400:24:08 01:36:27 
132123 40PETER GRIESHOPHUNTERSVILLE NC17200:19:3600:04:287600:46:47    01:36:27 
13368 36KEVIN COWANMOORESVILLE NC18200:20:0900:01:5012600:49:2000:00:3111700:24:45 01:36:32 
134136 42GREG HAWGOODCHARLOTTE NC8700:16:2800:03:0015000:50:2300:01:1613800:25:29 01:36:34 
135218 17CHARLIE MIDDLEBROOKSCHARLOTTE NC10000:16:4700:02:4018600:52:3000:00:469900:24:00 01:36:41 
136172MC46RANDY KLATTCHARLOTTE NC13000:17:3400:02:5915300:50:3700:00:4412100:24:54 01:36:47 
137111 38JUSTIN GATLINMATTHEWS NC16800:19:2300:04:0213300:49:3700:00:576900:22:50 01:36:47 
138373 28BRIAN ZAPATACHARLOTTE NC13700:18:0800:02:2914100:49:5900:00:4014200:25:39 01:36:53 
139277 43DAVID ROBINSONRALEIGH NC9300:16:3800:02:2017000:51:2600:00:4814400:25:44 01:36:54 
140114 38JIMMY GODWINCHARLOTTE NC11300:17:0800:03:338200:46:5700:01:0320000:28:23 01:37:00 
141116 33TODD GOLBUSMATTHEWS NC17900:20:0100:03:138500:47:0800:00:5815100:25:56 01:37:14 
142364C38JAMES WILTONWESLEY CHAPEL NC14300:18:2200:03:0915600:50:4400:00:3111400:24:32 01:37:16 
143197 37STEWART LITTLEINDIAN TRAIL NC5700:15:1000:03:0013500:49:4100:01:0520100:28:24 01:37:18 
144288 43JAMES SHARPFORT MILL SC15400:18:5400:02:5417800:52:0500:01:464400:21:41 01:37:18 
145375 37ANTHONY ZURESSCHARLOTTE NC14000:18:1300:02:4512100:48:5600:01:1616700:26:29 01:37:36 
14665MC43KEITH CORNWELLWAXHAW NC15200:18:4600:01:578600:47:1300:01:1420400:28:37 01:37:44 
147281C30ADAM ROSSMARIETTA GA10300:16:5200:02:0616800:51:1600:00:5416900:26:40 01:37:45 
148270 46DOUG REYNOLDSWAXHAW NC6900:15:5500:04:1613700:49:4700:00:5817800:27:03 01:37:56 
149143 37ADAM HOLDEN-BACHECHARLOTTE NC16900:19:3100:03:1712400:49:1000:01:2111800:24:50 01:38:08 
15080 41MICHAEL DERRCHARLOTTE NC18700:20:1400:03:1410600:48:2400:01:1612500:25:03 01:38:09 
151181 41PAUL KURZEJACHARLOTTE NC   14300:50:0200:01:0310300:24:08 01:38:45 
15266C39KEVIN CORNWELLSMYRNA GA16700:19:2000:03:175900:45:1900:01:1921500:29:33 01:38:46 
153165 41GEORGE KATINASHUNTERSVILLE NC10200:16:4900:02:4111300:48:3900:01:4021100:29:12 01:38:58 
154336 40MARK VAN SICKLEFORT MILL SC20300:21:2800:02:426200:45:4400:02:0817500:27:00 01:39:00 
PlaceBibCodAgNAMECITY/STATERankSWIMT1RankBIKET2RankRUNPENALTYTIMEDQ
155102C38DALE FITEHUNTERSVILLE NC14700:18:3600:03:349700:47:3700:00:5820200:28:28 01:39:12 
156142MC41JAYMES HOLDENPINEVILLE NC19400:20:3500:02:4914600:50:1000:00:5312800:25:12 01:39:37 
157134 40DON HARTCHARLOTTE NC16100:19:1200:03:3517300:51:2800:01:0311000:24:26 01:39:41 
158241 48THOMAS OBANNONCHARLOTTE NC11000:17:0400:02:4518700:52:3300:00:5416600:26:28 01:39:43 
159342 39ERIC VIRKLERCHARLOTTE NC15800:19:0100:03:0013400:49:4000:01:1417900:27:03 01:39:55 
160341 39GILBERT VINLUANCHARLOTTE NC22100:22:4700:04:3011900:48:5000:01:385700:22:17 01:40:01 
16130MC45JIM BREWERBURNSVILLE NC20700:21:5400:02:318100:46:5600:01:3518000:27:07 01:40:01 
162305 52DAVID STAFFORDDALLAS NC20800:21:5800:02:3713200:49:3200:00:5113300:25:18 01:40:14 
16357 38DAVID CLARKCHARLOTTE NC6600:15:4700:02:4712500:49:1500:01:1322400:31:17 01:40:16 
164386 40ROB CHENHUNTERSVILLE NC19200:20:2900:01:4516900:51:2000:01:1314000:25:35 01:40:19 
165334 20ERIC VALDESASHEVILLE NC16500:19:1600:03:2716600:51:0900:01:1213400:25:21 01:40:22 
166163 38MICHAEL KACZMAREKCONCORD NC10400:16:5200:03:3415400:50:3800:01:1619800:28:11 01:40:29 
167127 38DAVID HALLCHARLOTTE NC19300:20:3200:02:5015100:50:2400:01:2613500:25:24 01:40:33 
168117 32SANTIAGO GOMEZCHARLOTTE NC23900:27:4100:01:379100:47:2400:00:428100:23:11 01:40:34 
169189 36LARRY LEHMANCHARLOTTE NC11900:17:1600:03:0517600:51:4600:01:1018900:27:34 01:40:49 
17039C31SEAN BUCHANANRAEFORD NC14800:18:3700:02:1718900:52:4500:01:2514800:25:53 01:40:55 
1717 15REID ANDERSONWAXHAW NC22800:23:2100:02:319300:47:2600:00:5018300:27:19 01:41:26 
172346 35DANIEL VOTECHARLOTTE NC19500:20:3700:02:2113000:49:2800:01:4118600:27:23 01:41:26 
173104 40DREW FITZGERALDCHARLOTTE NC18900:20:1700:03:1918000:52:1000:00:5411900:24:50 01:41:28 
174122 28MICHAEL GORHAMCHARLOTTE NC13400:17:5600:02:4821300:56:1600:00:3410200:24:03 01:41:36 
175275 37JEFF RIEDEL-BICKNELLCHARLOTTE NC13100:17:3900:02:0214000:49:5400:00:5222600:31:29 01:41:54 
17622 43ROB BERRYMINT HILL NC17700:19:5900:04:0019400:53:3700:01:536400:22:38 01:42:04 
177174 30GOLF KONGRUENGKITCHARLOTTE NC15600:18:5700:02:4318400:52:2500:01:2517300:26:47 01:42:14 
17895C27JON FARRARCHARLOTTE NC14200:18:2100:02:2017700:51:5400:00:4820900:29:01 01:42:21 
179350 38MATTHEW WARDCHARLOTTE NC21600:22:2200:03:3216200:51:0300:01:1511200:24:31 01:42:41 
180356 27CASEY WHITEMATTHEWS NC21800:22:4000:03:0119300:53:1500:00:587200:22:54 01:42:47 
181318MC52PAUL SWEARINGENHARRISBURG NC12900:17:3000:04:0016300:51:0800:01:5419900:28:17 01:42:49 
182323 37CHRIS TENOLDWAXHAW NC18400:20:1000:03:4713600:49:4100:01:0720600:28:43 01:43:26 
183381 28BLAIR SHROPSHIRECHARLOTTE NC10600:16:5500:03:2119500:53:5300:01:4919200:27:43 01:43:39 
184360 39TOM WILEYWAXHAW NC15500:18:5600:02:5720000:54:3500:00:3916800:26:36 01:43:42 
185302 42JOHN SOGGSCHARLOTTE NC10700:16:5800:07:0322901:00:2600:00:45400:18:41 01:43:50 
PlaceBibCodAgNAMECITY/STATERankSWIMT1RankBIKET2RankRUNPENALTYTIMEDQ
186268C34TIMOTHY READINGFORT MILL SC20600:21:4500:03:0615500:50:4100:01:1418500:27:22 01:44:06 
187365 25MICHAEL WISEFAYETTEVILLE NC22700:23:2100:02:5814800:50:1600:01:0517100:26:46 01:44:24 
188203 30JUAN-PABLO MANCIAMATTHEWS NC15300:18:5200:02:3123101:00:4600:00:464800:21:53 01:44:46 
189135C39BILL HASHEMARVIN NC20900:21:5800:04:5211400:48:4300:01:2519300:27:56 01:44:52 
190158 40JAY JACOBWAXHAW NC18600:20:1200:03:1719800:54:1900:01:1715300:26:01 01:45:04 
191354 35MATT WEISSERTMATTHEWS NC21100:22:0600:03:3120200:54:5000:01:0010000:24:01 01:45:26 
192125 40TOBIAS HAECKERAPEX NC12600:17:2500:03:4619100:52:5000:00:3722100:30:54 01:45:29 
193132 41STEVEN HARRISONCHARLOTTE NC20200:21:1700:03:5517900:52:0700:01:1218800:27:29 01:45:58 
194166 21WILLIAM KEENANWINSTON-SALEM NC17100:19:3400:04:4622200:58:0600:01:165900:22:22 01:46:01 
195358 43DENSEL WHITEWAXHAW NC24000:28:1000:03:0512200:49:0200:01:3211500:24:33 01:46:20 
196309 35JEREMY STEPHENSONCHARLOTTE NC22400:23:1100:03:1516700:51:1600:01:2618200:27:17 01:46:24 
19785 43JOSEPH DIABRALEIGH NC21000:22:0000:05:0318500:52:3000:01:0315600:26:16 01:46:50 
198126 50MIKE HAGANCHARLOTTE NC18100:20:0600:05:0418200:52:1700:01:4219600:28:08 01:47:15 
199196 28TY LIPEFAYETTEVILLE NC22500:23:1400:01:4321600:57:0700:01:418800:23:40 01:47:22 
200186 65JAMES LANGCHARLOTTE NC16000:19:0300:03:3021400:56:4900:00:5119100:27:38 01:47:48 
201109C32BRYAN FRANKLINROCK HILL SC3600:14:3200:04:4620900:55:2500:00:5023000:32:37 01:48:08 
20278 35DOUGLAS DEJONGEINDIAN LAND SC16400:19:1400:02:5323401:01:3800:01:148200:23:14 01:48:12 
20314 26GRAHAM ASHCRAFTCHARLOTTE NC17400:19:4300:03:1721700:57:0800:01:5116400:26:25 01:48:21 
20458 42DAVID CLINEHARRISBURG NC23800:27:3000:02:5413800:49:4700:01:2518100:27:09 01:48:45 
205299 36TERRY SMITHWAXHAW NC16600:19:1900:03:2621100:55:5500:01:1221000:29:05 01:48:56 
206151MC40SCOTT HOYTCARY NC23400:24:5600:06:5414900:50:1900:02:0813200:25:17 01:49:32 
20726 47MARK BOYAJIANCHARLOTTE NC17800:20:0100:02:5121000:55:3800:01:1521700:29:49 01:49:33 
208320 58JAMES TAPKASWAXHAW NC22600:23:1500:04:1619200:53:1200:01:5618400:27:21 01:49:58 
209355 47HUDSON WELCHCHARLOTTE NC10900:17:0100:03:4520800:55:2200:02:2122700:31:44 01:50:10 
21015 30HENRY BAILEYDAVIDSON NC20000:21:0900:03:0422700:59:5300:00:4014300:25:41 01:50:26 
211357 54DAN WHITECORNELIUS NC23000:24:1400:02:0920100:54:4200:01:1420300:28:36 01:50:54 
21289MC41LEE EDWARDSCONCORD NC19900:20:5500:03:3618800:52:4200:01:1323300:33:09 01:51:33 
213128 28TRAVIS HALLROANOKE VA16200:19:1400:04:1123201:00:5400:01:0816100:26:23 01:51:47 
2145 54JAMES ALLARDCARY NC24200:30:0700:03:1816000:50:5900:01:3915400:26:01 01:52:03 
215120 36TODD GOODSONFORT MILL SC9900:16:4100:04:0420700:55:1900:02:0423800:34:28 01:52:35 
216130 37DEAN HARRELSONCHARLOTTE NC23500:26:0000:02:3814500:50:0500:00:5123400:33:35 01:53:07 
PlaceBibCodAgNAMECITY/STATERankSWIMT1RankBIKET2RankRUNPENALTYTIMEDQ
217292 35BRIAN SHREVESWEDDINGTON NC22000:22:4600:04:0919700:54:1500:01:5921900:30:07 01:53:13 
218329 61BOB TRIPLETTCHARLOTTE NC21300:22:0900:04:1619600:54:0800:02:2022000:30:28 01:53:20 
21972 45BRUCE CUNNINGHAMWAXHAW NC17600:19:5500:03:1124001:05:2400:01:049800:23:59 01:53:31 
220372C37GREG YANZCHINA GROVE NC8600:16:2700:04:3321200:55:5800:01:4924100:34:57 01:53:42 
221247 45MARK OSWALDCHARLOTTE NC15900:19:0100:04:2520600:55:1100:01:1923500:33:53 01:53:47 
222274 38MATTHEW RICECHARLOTTE NC23300:24:4600:02:5720400:54:5900:00:5922300:31:13 01:54:52 
22334 39ANDREW BROOKSCHARLOTTE NC21700:22:3400:03:5122300:58:1000:01:2521400:29:30 01:55:28 
224391 37GREG NELSONMATTHEWS NC9700:16:4000:03:2024301:07:5800:00:5717600:27:00 01:55:53 
225289 35KRIS SHEPARDCHARLOTTE NC18800:20:1600:04:2420300:54:5800:01:5323700:34:26 01:55:55 
226202 33SEAN MALONEYFORT MILL SC9600:16:3900:03:3724201:06:3400:00:2520700:28:46 01:55:59 
227208C37REID MATTHEWSWAXHAW NC21400:22:1200:03:3622600:59:4800:01:2221300:29:24 01:56:20 
22874 11MAX CUNNINGHAMWAXHAW NC21900:22:4400:04:3223701:04:1000:01:099700:23:58 01:56:30 
2291 50STEPHEN ABBOTTGASTONIA NC19700:20:49    22200:30:56 01:56:52 
230284MC44WAGNER SANTIAGOGASTONIA NC14600:18:3400:03:5615900:50:5100:02:0824300:41:25 01:56:53 
231187 62N LARSENGASTONIA NC21500:22:1300:04:1922400:58:1600:02:4921800:30:00 01:57:35 
232353 38ROBB WEBBCHARLOTTE NC19600:20:4300:06:1923301:01:0300:01:4219400:28:03 01:57:47 
233325 70WILLIAM THOMASCHARLOTTE NC22200:22:5800:04:5519900:54:2300:01:3123600:34:04 01:57:49 
23435MC47JIM BROOKSSALISBURY NC20400:21:3300:04:3323501:03:2800:01:0020500:28:40 01:59:13 
23560MC48MICHAEL CONRADHUNTERSVILLE NC23100:24:3400:03:2921900:57:4700:01:4922800:31:52 01:59:29 
23619MC41JAMES BEAVERGREENVILLE SC24100:29:5700:04:2220500:55:1100:00:3821600:29:35 01:59:42 
237368 60WILLIAM WOODRUFFBUIES CREEK NC21200:22:0800:03:5022500:59:0600:02:0023200:32:56 01:59:58 
23892C36STEVE EPSTEINCHARLOTTE NC22900:23:3900:03:4422100:58:0100:01:1323900:34:51 02:01:27 
23949 34BRIAN CARTERTEGA CAY SC20500:21:3500:03:4323901:05:1000:01:3323100:32:43 02:04:43 
240198 37JACK LOWREYMARIETTA GA19800:20:5000:09:3223801:04:16    02:05:20 
241235 33DIEGO NARANJOCHARLOTTE NC   21500:57:0400:01:1019000:27:35 02:05:32 
242124 36MARK GUSTAFSONCHARLOTTE NC23700:27:2300:08:1121800:57:1700:04:2122500:31:20 02:08:31 
243297 15RYAN SMITHSALISBURY NC23200:24:3700:03:1824501:12:1400:00:5519500:28:06 02:09:07 
24482 33JASON DEWARMATTHEWS NC17300:19:4100:16:5123601:03:4800:01:3920800:28:48 02:10:45 
245105 68LEE FOLTZINDIAN LAND SC23600:26:5000:05:0922801:00:1900:02:2224200:36:20 02:10:58 
246156 54BRIAN IMBREYCHARLOTTE NC22300:23:0200:05:4324401:09:0500:01:0724000:34:56 02:13:51 
24750 55MAURY CASEYFORT MILL SC   24101:06:1200:01:2724400:42:52 02:18:29 
PlaceBibCodAgNAMECITY/STATERankSWIMT1RankBIKET2RankRUNPENALTYTIMEDQ
248217 37KEITH MENENDEZCHARLOTTE NC24300:36:2100:05:0023001:00:4400:04:0322900:32:31 02:18:37 

** Results are for the private use of participants and are the Intellectual Property of Set Up Events. Unauthorized use of these results is prohibited.